Terminal Aerodrome Forecast
Issued by NWS Louisville, KY

Home | Current Version | Previous Version | Text Only | Print | Product List | Glossary On
Versions: 1 2 3 4 5 6 7 8 9 10 11 12 13 14 15 16 17 18
000
FTUS43 KLMK 301100
TAFBWG
TAF
KBWG 301132Z 3012/3112 VRB03KT P6SM BKN100
     FM301500 21008KT P6SM BKN100
     FM301900 19006KT 6SM -SHRA VCTS BKN035CB
     FM310300 18006KT 4SM -SHRA BR VCTS BKN025CB=

USA.gov is the U.S. government's official web portal to all federal, state and local government web resources and services.